sensor_id;sensor_type;location;lat;lon;timestamp;pressure;altitude;pressure_sealevel;temperature;humidity
11413;BME280;5762;43.256;26.960;2023-02-19T00:01:53;99534.17;;;14.24;100.00
11413;BME280;5762;43.256;26.960;2023-02-19T00:04:22;99540.62;;;14.19;100.00
11413;BME280;5762;43.256;26.960;2023-02-19T00:06:51;99537.11;;;14.19;100.00
11413;BME280;5762;43.256;26.960;2023-02-19T00:09:20;99538.25;;;14.24;100.00
11413;BME280;5762;43.256;26.960;2023-02-19T00:11:48;99533.05;;;14.25;100.00
11413;BME280;5762;43.256;26.960;2023-02-19T00:14:18;99528.61;;;14.20;100.00
11413;BME280;5762;43.256;26.960;2023-02-19T00:16:46;99508.08;;;14.23;100.00
11413;BME280;5762;43.256;26.960;2023-02-19T00:19:15;99519.34;;;14.27;100.00
11413;BME280;5762;43.256;26.960;2023-02-19T00:21:43;99520.47;;;14.26;100.00
11413;BME280;5762;43.256;26.960;2023-02-19T00:24:13;99523.02;;;14.17;100.00
11413;BME280;5762;43.256;26.960;2023-02-19T00:26:42;99526.81;;;14.09;100.00
11413;BME280;5762;43.256;26.960;2023-02-19T00:29:15;99522.49;;;14.08;100.00
11413;BME280;5762;43.256;26.960;2023-02-19T00:31:43;99510.19;;;14.02;100.00
11413;BME280;5762;43.256;26.960;2023-02-19T00:34:12;99520.72;;;14.13;100.00
11413;BME280;5762;43.256;26.960;2023-02-19T00:36:41;99514.80;;;14.11;100.00
11413;BME280;5762;43.256;26.960;2023-02-19T00:39:10;99515.22;;;14.06;100.00
11413;BME280;5762;43.256;26.960;2023-02-19T00:41:39;99508.94;;;14.15;100.00
11413;BME280;5762;43.256;26.960;2023-02-19T00:44:09;99507.41;;;14.20;100.00
11413;BME280;5762;43.256;26.960;2023-02-19T00:46:43;99498.37;;;14.28;100.00
11413;BME280;5762;43.256;26.960;2023-02-19T00:49:20;99495.09;;;14.28;100.00
11413;BME280;5762;43.256;26.960;2023-02-19T00:51:49;99492.23;;;14.39;100.00
11413;BME280;5762;43.256;26.960;2023-02-19T00:54:18;99491.74;;;14.46;100.00
11413;BME280;5762;43.256;26.960;2023-02-19T00:56:47;99486.03;;;14.60;100.00
11413;BME280;5762;43.256;26.960;2023-02-19T00:59:15;99479.92;;;14.63;100.00
11413;BME280;5762;43.256;26.960;2023-02-19T01:01:48;99482.31;;;14.64;100.00
11413;BME280;5762;43.256;26.960;2023-02-19T01:04:12;99476.16;;;14.61;100.00
11413;BME280;5762;43.256;26.960;2023-02-19T01:06:41;99472.45;;;14.66;100.00
11413;BME280;5762;43.256;26.960;2023-02-19T01:09:10;99474.48;;;14.63;100.00
11413;BME280;5762;43.256;26.960;2023-02-19T01:11:39;99469.67;;;14.74;100.00
11413;BME280;5762;43.256;26.960;2023-02-19T01:14:07;99453.59;;;14.82;100.00
11413;BME280;5762;43.256;26.960;2023-02-19T01:16:35;99474.16;;;14.85;100.00
11413;BME280;5762;43.256;26.960;2023-02-19T01:19:04;99477.02;;;14.89;100.00
11413;BME280;5762;43.256;26.960;2023-02-19T01:21:33;99449.08;;;14.86;100.00
11413;BME280;5762;43.256;26.960;2023-02-19T01:24:01;99460.64;;;14.83;100.00
11413;BME280;5762;43.256;26.960;2023-02-19T01:26:30;99469.28;;;14.85;100.00
11413;BME280;5762;43.256;26.960;2023-02-19T01:28:59;99455.79;;;14.88;100.00
11413;BME280;5762;43.256;26.960;2023-02-19T01:31:27;99472.20;;;14.80;100.00
11413;BME280;5762;43.256;26.960;2023-02-19T01:33:57;99478.72;;;14.87;100.00
11413;BME280;5762;43.256;26.960;2023-02-19T01:36:26;99465.81;;;14.75;100.00
11413;BME280;5762;43.256;26.960;2023-02-19T01:38:55;99475.08;;;14.68;100.00
11413;BME280;5762;43.256;26.960;2023-02-19T01:41:23;99467.20;;;14.61;100.00
11413;BME280;5762;43.256;26.960;2023-02-19T01:46:30;99469.59;;;14.62;100.00
11413;BME280;5762;43.256;26.960;2023-02-19T01:49:01;99470.33;;;14.71;100.00
11413;BME280;5762;43.256;26.960;2023-02-19T01:51:29;99461.73;;;14.75;98.92
11413;BME280;5762;43.256;26.960;2023-02-19T01:53:58;99472.06;;;14.76;98.80
11413;BME280;5762;43.256;26.960;2023-02-19T01:56:27;99461.50;;;14.74;96.80
11413;BME280;5762;43.256;26.960;2023-02-19T01:58:56;99472.16;;;14.73;97.42
11413;BME280;5762;43.256;26.960;2023-02-19T02:01:25;99470.94;;;14.77;94.99
11413;BME280;5762;43.256;26.960;2023-02-19T02:03:53;99446.98;;;14.77;95.18
11413;BME280;5762;43.256;26.960;2023-02-19T02:06:23;99453.92;;;14.80;93.58
11413;BME280;5762;43.256;26.960;2023-02-19T02:08:54;99451.10;;;14.83;92.44
11413;BME280;5762;43.256;26.960;2023-02-19T02:11:39;99445.48;;;14.73;92.77
11413;BME280;5762;43.256;26.960;2023-02-19T02:14:07;99453.33;;;14.74;91.91
11413;BME280;5762;43.256;26.960;2023-02-19T02:16:53;99434.26;;;14.74;90.31
11413;BME280;5762;43.256;26.960;2023-02-19T02:19:29;99442.47;;;14.81;89.25
11413;BME280;5762;43.256;26.960;2023-02-19T02:27:37;99463.05;;;14.69;89.44
11413;BME280;5762;43.256;26.960;2023-02-19T02:30:21;99471.93;;;14.72;88.25
11413;BME280;5762;43.256;26.960;2023-02-19T02:33:11;99467.61;;;14.71;87.90
11413;BME280;5762;43.256;26.960;2023-02-19T02:35:25;99463.85;;;14.70;87.34
11413;BME280;5762;43.256;26.960;2023-02-19T02:37:49;99476.87;;;14.64;87.42
11413;BME280;5762;43.256;26.960;2023-02-19T02:40:19;99473.48;;;14.67;86.60
11413;BME280;5762;43.256;26.960;2023-02-19T02:42:47;99463.39;;;14.68;85.67
11413;BME280;5762;43.256;26.960;2023-02-19T02:45:23;99457.98;;;14.53;87.17
11413;BME280;5762;43.256;26.960;2023-02-19T02:50:38;99461.11;;;14.34;88.92
11413;BME280;5762;43.256;26.960;2023-02-19T02:53:07;99469.04;;;14.33;88.87
11413;BME280;5762;43.256;26.960;2023-02-19T02:55:51;99455.23;;;14.24;89.51
11413;BME280;5762;43.256;26.960;2023-02-19T02:58:21;99463.41;;;14.24;89.07
11413;BME280;5762;43.256;26.960;2023-02-19T03:00:51;99465.21;;;14.20;89.03
11413;BME280;5762;43.256;26.960;2023-02-19T03:03:35;99458.41;;;14.20;88.61
11413;BME280;5762;43.256;26.960;2023-02-19T03:06:04;99457.35;;;14.33;87.33
11413;BME280;5762;43.256;26.960;2023-02-19T03:08:35;99460.96;;;14.31;87.60
11413;BME280;5762;43.256;26.960;2023-02-19T03:11:04;99463.41;;;14.24;88.34
11413;BME280;5762;43.256;26.960;2023-02-19T03:13:54;99457.94;;;14.47;85.69
11413;BME280;5762;43.256;26.960;2023-02-19T03:16:35;99483.30;;;14.54;84.50
11413;BME280;5762;43.256;26.960;2023-02-19T03:19:21;99474.00;;;14.55;84.24
11413;BME280;5762;43.256;26.960;2023-02-19T03:24:30;99489.87;;;14.59;83.71
11413;BME280;5762;43.256;26.960;2023-02-19T03:27:15;99487.94;;;14.53;83.83
11413;BME280;5762;43.256;26.960;2023-02-19T03:29:43;99485.88;;;14.50;84.29
11413;BME280;5762;43.256;26.960;2023-02-19T03:32:20;99506.53;;;14.51;84.12
11413;BME280;5762;43.256;26.960;2023-02-19T03:34:53;99517.66;;;14.52;84.29
11413;BME280;5762;43.256;26.960;2023-02-19T03:37:18;99515.22;;;14.45;84.47
11413;BME280;5762;43.256;26.960;2023-02-19T03:39:47;99507.38;;;14.43;85.11
11413;BME280;5762;43.256;26.960;2023-02-19T03:42:26;99516.77;;;14.31;86.15
11413;BME280;5762;43.256;26.960;2023-02-19T03:47:49;99495.64;;;14.28;86.92
11413;BME280;5762;43.256;26.960;2023-02-19T03:50:16;99510.21;;;14.17;87.91
11413;BME280;5762;43.256;26.960;2023-02-19T03:52:47;99501.02;;;14.16;88.14
11413;BME280;5762;43.256;26.960;2023-02-19T03:57:50;99505.87;;;14.01;89.51
11413;BME280;5762;43.256;26.960;2023-02-19T04:00:20;99496.02;;;14.03;89.71
11413;BME280;5762;43.256;26.960;2023-02-19T04:03:01;99499.13;;;14.07;89.83
11413;BME280;5762;43.256;26.960;2023-02-19T04:05:29;99491.25;;;13.91;91.28
11413;BME280;5762;43.256;26.960;2023-02-19T04:07:59;99492.11;;;13.98;90.79
11413;BME280;5762;43.256;26.960;2023-02-19T04:10:27;99474.46;;;13.89;91.37
11413;BME280;5762;43.256;26.960;2023-02-19T04:13:05;99484.30;;;13.88;91.98
11413;BME280;5762;43.256;26.960;2023-02-19T04:15:33;99480.05;;;13.78;92.73
11413;BME280;5762;43.256;26.960;2023-02-19T04:18:10;99474.75;;;13.82;93.24
11413;BME280;5762;43.256;26.960;2023-02-19T04:20:35;99483.00;;;13.79;94.00
11413;BME280;5762;43.256;26.960;2023-02-19T04:23:02;99485.02;;;13.76;94.41
11413;BME280;5762;43.256;26.960;2023-02-19T04:25:31;99487.49;;;13.75;94.64
11413;BME280;5762;43.256;26.960;2023-02-19T04:28:00;99493.98;;;13.68;95.26
11413;BME280;5762;43.256;26.960;2023-02-19T04:30:29;99475.84;;;13.66;95.78
11413;BME280;5762;43.256;26.960;2023-02-19T04:32:59;99500.95;;;13.63;96.38
11413;BME280;5762;43.256;26.960;2023-02-19T04:35:28;99503.52;;;13.59;96.80
11413;BME280;5762;43.256;26.960;2023-02-19T04:37:56;99495.30;;;13.53;97.63
11413;BME280;5762;43.256;26.960;2023-02-19T04:40:24;99501.77;;;13.55;97.75
11413;BME280;5762;43.256;26.960;2023-02-19T04:42:52;99505.56;;;13.48;98.67
11413;BME280;5762;43.256;26.960;2023-02-19T04:45:21;99469.68;;;13.39;99.95
11413;BME280;5762;43.256;26.960;2023-02-19T04:47:50;99505.82;;;13.31;100.00
11413;BME280;5762;43.256;26.960;2023-02-19T04:50:19;99518.13;;;13.29;100.00
11413;BME280;5762;43.256;26.960;2023-02-19T04:52:48;99517.41;;;13.17;100.00
11413;BME280;5762;43.256;26.960;2023-02-19T04:55:16;99532.03;;;13.10;100.00
11413;BME280;5762;43.256;26.960;2023-02-19T04:57:45;99522.44;;;13.04;100.00
11413;BME280;5762;43.256;26.960;2023-02-19T05:00:14;99542.66;;;13.00;100.00
11413;BME280;5762;43.256;26.960;2023-02-19T05:02:42;99555.34;;;12.94;100.00
11413;BME280;5762;43.256;26.960;2023-02-19T05:05:10;99553.98;;;12.94;100.00
11413;BME280;5762;43.256;26.960;2023-02-19T05:07:38;99553.17;;;12.85;100.00
11413;BME280;5762;43.256;26.960;2023-02-19T05:10:07;99560.14;;;12.80;100.00
11413;BME280;5762;43.256;26.960;2023-02-19T05:12:36;99564.75;;;12.70;100.00
11413;BME280;5762;43.256;26.960;2023-02-19T05:15:05;99581.35;;;12.69;100.00
11413;BME280;5762;43.256;26.960;2023-02-19T05:17:33;99564.02;;;12.67;100.00
11413;BME280;5762;43.256;26.960;2023-02-19T05:20:02;99560.33;;;12.63;100.00
11413;BME280;5762;43.256;26.960;2023-02-19T05:22:30;99564.55;;;12.58;100.00
11413;BME280;5762;43.256;26.960;2023-02-19T05:24:59;99561.11;;;12.55;100.00
11413;BME280;5762;43.256;26.960;2023-02-19T05:27:28;99561.83;;;12.58;100.00
11413;BME280;5762;43.256;26.960;2023-02-19T05:29:57;99533.59;;;12.68;100.00
11413;BME280;5762;43.256;26.960;2023-02-19T05:32:25;99499.02;;;12.71;100.00
11413;BME280;5762;43.256;26.960;2023-02-19T05:34:54;99527.94;;;12.75;100.00
11413;BME280;5762;43.256;26.960;2023-02-19T05:37:23;99549.18;;;12.73;100.00
11413;BME280;5762;43.256;26.960;2023-02-19T05:39:52;99534.48;;;12.74;100.00
11413;BME280;5762;43.256;26.960;2023-02-19T05:42:20;99546.80;;;12.81;100.00
11413;BME280;5762;43.256;26.960;2023-02-19T05:44:49;99570.90;;;12.82;100.00
11413;BME280;5762;43.256;26.960;2023-02-19T05:47:18;99560.84;;;12.83;100.00
11413;BME280;5762;43.256;26.960;2023-02-19T05:49:46;99542.86;;;12.84;100.00
11413;BME280;5762;43.256;26.960;2023-02-19T05:52:15;99563.72;;;12.86;100.00
11413;BME280;5762;43.256;26.960;2023-02-19T05:54:43;99575.72;;;12.94;100.00
11413;BME280;5762;43.256;26.960;2023-02-19T05:57:12;99597.45;;;12.94;100.00
11413;BME280;5762;43.256;26.960;2023-02-19T05:59:41;99567.17;;;12.98;100.00
11413;BME280;5762;43.256;26.960;2023-02-19T06:02:09;99563.33;;;12.90;100.00
11413;BME280;5762;43.256;26.960;2023-02-19T06:04:38;99599.13;;;12.92;100.00
11413;BME280;5762;43.256;26.960;2023-02-19T06:07:06;99579.94;;;12.89;100.00
11413;BME280;5762;43.256;26.960;2023-02-19T06:09:35;99563.64;;;12.89;100.00
11413;BME280;5762;43.256;26.960;2023-02-19T06:12:04;99605.59;;;12.94;100.00
11413;BME280;5762;43.256;26.960;2023-02-19T06:14:33;99589.77;;;12.87;100.00
11413;BME280;5762;43.256;26.960;2023-02-19T06:17:01;99612.12;;;12.84;100.00
11413;BME280;5762;43.256;26.960;2023-02-19T06:19:30;99621.00;;;12.87;100.00
11413;BME280;5762;43.256;26.960;2023-02-19T06:21:59;99607.80;;;12.83;100.00
11413;BME280;5762;43.256;26.960;2023-02-19T06:24:27;99629.63;;;12.81;100.00
11413;BME280;5762;43.256;26.960;2023-02-19T06:26:56;99631.23;;;12.82;100.00
11413;BME280;5762;43.256;26.960;2023-02-19T06:29:25;99600.94;;;12.77;100.00
11413;BME280;5762;43.256;26.960;2023-02-19T06:31:53;99610.42;;;12.68;100.00
11413;BME280;5762;43.256;26.960;2023-02-19T06:34:21;99639.48;;;12.68;100.00
11413;BME280;5762;43.256;26.960;2023-02-19T06:36:50;99635.73;;;12.66;100.00
11413;BME280;5762;43.256;26.960;2023-02-19T06:39:19;99637.64;;;12.66;100.00
11413;BME280;5762;43.256;26.960;2023-02-19T06:41:48;99636.04;;;12.65;100.00
11413;BME280;5762;43.256;26.960;2023-02-19T06:44:16;99588.53;;;12.65;100.00
11413;BME280;5762;43.256;26.960;2023-02-19T06:46:45;99631.52;;;12.71;100.00
11413;BME280;5762;43.256;26.960;2023-02-19T06:49:17;99637.05;;;12.78;100.00
11413;BME280;5762;43.256;26.960;2023-02-19T06:51:46;99637.53;;;12.80;100.00
11413;BME280;5762;43.256;26.960;2023-02-19T06:54:14;99645.52;;;12.85;100.00
11413;BME280;5762;43.256;26.960;2023-02-19T06:56:42;99627.62;;;12.84;100.00
11413;BME280;5762;43.256;26.960;2023-02-19T06:59:11;99631.38;;;12.85;100.00
11413;BME280;5762;43.256;26.960;2023-02-19T07:01:41;99651.43;;;12.87;100.00
11413;BME280;5762;43.256;26.960;2023-02-19T07:04:10;99673.02;;;12.92;100.00
11413;BME280;5762;43.256;26.960;2023-02-19T07:06:39;99658.70;;;12.89;100.00
11413;BME280;5762;43.256;26.960;2023-02-19T07:09:07;99662.78;;;12.89;100.00
11413;BME280;5762;43.256;26.960;2023-02-19T07:11:37;99663.61;;;12.98;100.00
11413;BME280;5762;43.256;26.960;2023-02-19T07:14:07;99641.64;;;12.97;100.00
11413;BME280;5762;43.256;26.960;2023-02-19T07:16:35;99654.25;;;12.93;100.00
11413;BME280;5762;43.256;26.960;2023-02-19T07:19:04;99637.56;;;12.97;100.00
11413;BME280;5762;43.256;26.960;2023-02-19T07:21:38;99666.81;;;13.00;100.00
11413;BME280;5762;43.256;26.960;2023-02-19T07:24:03;99671.14;;;13.01;100.00
11413;BME280;5762;43.256;26.960;2023-02-19T07:26:31;99664.34;;;13.01;100.00
11413;BME280;5762;43.256;26.960;2023-02-19T07:29:00;99676.73;;;13.04;100.00
11413;BME280;5762;43.256;26.960;2023-02-19T07:31:28;99695.86;;;13.11;100.00
11413;BME280;5762;43.256;26.960;2023-02-19T07:33:57;99677.91;;;13.21;100.00
11413;BME280;5762;43.256;26.960;2023-02-19T07:36:26;99678.22;;;13.19;100.00
11413;BME280;5762;43.256;26.960;2023-02-19T07:38:57;99700.62;;;13.25;100.00
11413;BME280;5762;43.256;26.960;2023-02-19T07:41:26;99692.97;;;13.35;100.00
11413;BME280;5762;43.256;26.960;2023-02-19T07:43:54;99696.73;;;13.37;100.00
11413;BME280;5762;43.256;26.960;2023-02-19T07:46:23;99718.26;;;13.45;100.00
11413;BME280;5762;43.256;26.960;2023-02-19T07:48:51;99724.42;;;13.48;100.00
11413;BME280;5762;43.256;26.960;2023-02-19T07:51:20;99704.77;;;13.51;100.00
11413;BME280;5762;43.256;26.960;2023-02-19T07:53:49;99720.41;;;13.54;100.00
11413;BME280;5762;43.256;26.960;2023-02-19T07:56:17;99720.66;;;13.63;100.00
11413;BME280;5762;43.256;26.960;2023-02-19T07:58:46;99688.44;;;13.68;100.00
11413;BME280;5762;43.256;26.960;2023-02-19T08:01:21;99721.71;;;13.65;100.00
11413;BME280;5762;43.256;26.960;2023-02-19T08:04:07;99712.59;;;13.61;100.00
11413;BME280;5762;43.256;26.960;2023-02-19T08:06:35;99712.61;;;13.78;100.00
11413;BME280;5762;43.256;26.960;2023-02-19T08:09:04;99692.91;;;13.90;100.00
11413;BME280;5762;43.256;26.960;2023-02-19T08:11:32;99700.42;;;13.93;100.00
11413;BME280;5762;43.256;26.960;2023-02-19T08:14:17;99703.38;;;13.94;100.00
11413;BME280;5762;43.256;26.960;2023-02-19T08:16:49;99693.38;;;14.00;100.00
11413;BME280;5762;43.256;26.960;2023-02-19T08:19:18;99703.38;;;14.02;100.00
11413;BME280;5762;43.256;26.960;2023-02-19T08:21:47;99698.66;;;14.14;100.00
11413;BME280;5762;43.256;26.960;2023-02-19T08:24:15;99693.61;;;14.19;100.00
11413;BME280;5762;43.256;26.960;2023-02-19T08:26:44;99705.50;;;14.29;100.00
11413;BME280;5762;43.256;26.960;2023-02-19T08:29:12;99695.95;;;14.37;100.00
11413;BME280;5762;43.256;26.960;2023-02-19T08:31:41;99711.02;;;14.52;100.00
11413;BME280;5762;43.256;26.960;2023-02-19T08:34:09;99697.39;;;14.52;100.00
11413;BME280;5762;43.256;26.960;2023-02-19T08:36:38;99699.00;;;14.53;100.00
11413;BME280;5762;43.256;26.960;2023-02-19T08:39:07;99704.72;;;14.60;100.00
11413;BME280;5762;43.256;26.960;2023-02-19T08:41:36;99717.98;;;14.70;100.00
11413;BME280;5762;43.256;26.960;2023-02-19T08:44:05;99718.14;;;14.74;100.00
11413;BME280;5762;43.256;26.960;2023-02-19T08:46:33;99715.80;;;14.79;100.00
11413;BME280;5762;43.256;26.960;2023-02-19T08:49:02;99705.44;;;14.87;100.00
11413;BME280;5762;43.256;26.960;2023-02-19T08:51:30;99711.11;;;15.02;100.00
11413;BME280;5762;43.256;26.960;2023-02-19T08:54:00;99712.08;;;15.21;100.00
11413;BME280;5762;43.256;26.960;2023-02-19T08:56:29;99715.05;;;15.28;100.00
11413;BME280;5762;43.256;26.960;2023-02-19T08:58:58;99720.79;;;15.35;100.00
11413;BME280;5762;43.256;26.960;2023-02-19T09:01:26;99722.16;;;15.35;100.00
11413;BME280;5762;43.256;26.960;2023-02-19T09:03:55;99708.94;;;15.31;100.00
11413;BME280;5762;43.256;26.960;2023-02-19T09:06:24;99708.00;;;15.42;100.00
11413;BME280;5762;43.256;26.960;2023-02-19T09:08:53;99703.87;;;15.36;100.00
11413;BME280;5762;43.256;26.960;2023-02-19T09:11:21;99705.75;;;15.29;100.00
11413;BME280;5762;43.256;26.960;2023-02-19T09:13:49;99712.19;;;15.39;100.00
11413;BME280;5762;43.256;26.960;2023-02-19T09:16:18;99697.14;;;15.33;100.00
11413;BME280;5762;43.256;26.960;2023-02-19T09:18:47;99710.27;;;15.40;100.00
11413;BME280;5762;43.256;26.960;2023-02-19T09:21:15;99708.90;;;15.40;100.00
11413;BME280;5762;43.256;26.960;2023-02-19T09:23:43;99694.08;;;15.50;100.00
11413;BME280;5762;43.256;26.960;2023-02-19T09:26:12;99651.26;;;15.35;100.00
11413;BME280;5762;43.256;26.960;2023-02-19T09:28:41;99668.83;;;15.47;100.00
11413;BME280;5762;43.256;26.960;2023-02-19T09:31:10;99715.99;;;15.47;100.00
11413;BME280;5762;43.256;26.960;2023-02-19T09:33:45;99680.67;;;15.51;100.00
11413;BME280;5762;43.256;26.960;2023-02-19T09:36:14;99695.66;;;15.59;100.00
11413;BME280;5762;43.256;26.960;2023-02-19T09:38:43;99693.53;;;15.71;100.00
11413;BME280;5762;43.256;26.960;2023-02-19T09:41:16;99677.86;;;15.74;100.00
11413;BME280;5762;43.256;26.960;2023-02-19T09:43:43;99654.70;;;15.80;100.00
11413;BME280;5762;43.256;26.960;2023-02-19T09:46:21;99669.91;;;15.75;100.00
11413;BME280;5762;43.256;26.960;2023-02-19T09:48:47;99656.47;;;15.70;100.00
11413;BME280;5762;43.256;26.960;2023-02-19T09:51:16;99656.77;;;15.62;100.00
11413;BME280;5762;43.256;26.960;2023-02-19T09:53:45;99657.00;;;15.63;100.00
11413;BME280;5762;43.256;26.960;2023-02-19T09:56:15;99657.50;;;15.71;100.00
11413;BME280;5762;43.256;26.960;2023-02-19T09:58:48;99660.79;;;15.71;100.00
11413;BME280;5762;43.256;26.960;2023-02-19T10:01:13;99639.42;;;15.73;100.00
11413;BME280;5762;43.256;26.960;2023-02-19T10:03:43;99634.77;;;15.73;100.00
11413;BME280;5762;43.256;26.960;2023-02-19T10:06:17;99647.57;;;15.88;100.00
11413;BME280;5762;43.256;26.960;2023-02-19T10:08:46;99650.79;;;16.02;100.00
11413;BME280;5762;43.256;26.960;2023-02-19T10:11:14;99631.99;;;15.88;100.00
11413;BME280;5762;43.256;26.960;2023-02-19T10:14:01;99625.06;;;15.97;100.00
11413;BME280;5762;43.256;26.960;2023-02-19T10:16:23;99634.41;;;16.02;100.00
11413;BME280;5762;43.256;26.960;2023-02-19T10:18:51;99638.48;;;15.96;100.00
11413;BME280;5762;43.256;26.960;2023-02-19T10:21:20;99629.62;;;15.99;100.00
11413;BME280;5762;43.256;26.960;2023-02-19T10:23:51;99632.14;;;16.04;100.00
11413;BME280;5762;43.256;26.960;2023-02-19T10:26:18;99612.50;;;16.29;100.00
11413;BME280;5762;43.256;26.960;2023-02-19T10:28:46;99605.95;;;16.54;100.00
11413;BME280;5762;43.256;26.960;2023-02-19T10:31:20;99591.70;;;16.42;100.00
11413;BME280;5762;43.256;26.960;2023-02-19T10:33:49;99603.98;;;16.18;100.00
11413;BME280;5762;43.256;26.960;2023-02-19T10:38:56;99585.91;;;16.26;100.00
11413;BME280;5762;43.256;26.960;2023-02-19T10:41:25;99581.10;;;16.17;100.00
11413;BME280;5762;43.256;26.960;2023-02-19T10:46:36;99566.28;;;16.05;100.00
11413;BME280;5762;43.256;26.960;2023-02-19T10:49:05;99574.16;;;16.13;100.00
11413;BME280;5762;43.256;26.960;2023-02-19T10:51:37;99567.22;;;16.16;100.00
11413;BME280;5762;43.256;26.960;2023-02-19T10:54:12;99549.49;;;16.28;100.00
11413;BME280;5762;43.256;26.960;2023-02-19T10:56:35;99538.44;;;16.49;100.00
11413;BME280;5762;43.256;26.960;2023-02-19T10:59:23;99531.94;;;16.78;100.00
11413;BME280;5762;43.256;26.960;2023-02-19T11:01:37;99546.63;;;16.79;100.00
11413;BME280;5762;43.256;26.960;2023-02-19T11:04:16;99522.66;;;17.00;100.00
11413;BME280;5762;43.256;26.960;2023-02-19T11:06:44;99541.53;;;17.18;100.00
11413;BME280;5762;43.256;26.960;2023-02-19T11:11:52;99566.71;;;17.17;99.42
11413;BME280;5762;43.256;26.960;2023-02-19T11:14:21;99554.87;;;17.13;99.48
11413;BME280;5762;43.256;26.960;2023-02-19T11:16:52;99551.07;;;17.30;98.95
11413;BME280;5762;43.256;26.960;2023-02-19T11:19:22;99551.07;;;17.30;96.67
11413;BME280;5762;43.256;26.960;2023-02-19T11:21:50;99501.73;;;17.48;94.73
11413;BME280;5762;43.256;26.960;2023-02-19T11:26:51;99511.45;;;17.18;97.51
11413;BME280;5762;43.256;26.960;2023-02-19T11:29:20;99508.25;;;17.43;97.02
11413;BME280;5762;43.256;26.960;2023-02-19T11:31:50;99512.70;;;17.42;95.91
11413;BME280;5762;43.256;26.960;2023-02-19T11:37:07;99500.47;;;17.73;94.81
11413;BME280;5762;43.256;26.960;2023-02-19T11:39:24;99504.73;;;17.87;93.55
11413;BME280;5762;43.256;26.960;2023-02-19T11:44:26;99472.81;;;18.00;89.33
11413;BME280;5762;43.256;26.960;2023-02-19T11:47:14;99498.95;;;17.98;87.25
11413;BME280;5762;43.256;26.960;2023-02-19T11:54:42;99452.52;;;17.64;88.54
11413;BME280;5762;43.256;26.960;2023-02-19T11:59:51;99491.43;;;17.57;87.22
11413;BME280;5762;43.256;26.960;2023-02-19T12:04:52;99453.40;;;17.68;85.78
11413;BME280;5762;43.256;26.960;2023-02-19T12:10:07;99439.30;;;17.66;84.38
11413;BME280;5762;43.256;26.960;2023-02-19T12:25:54;99446.97;;;17.76;90.61
11413;BME280;5762;43.256;26.960;2023-02-19T12:36:04;99467.29;;;17.91;89.14
11413;BME280;5762;43.256;26.960;2023-02-19T12:38:35;99469.89;;;17.93;88.14
11413;BME280;5762;43.256;26.960;2023-02-19T12:41:16;99462.03;;;17.92;88.21
11413;BME280;5762;43.256;26.960;2023-02-19T12:43:34;99473.69;;;17.89;88.92
11413;BME280;5762;43.256;26.960;2023-02-19T12:46:05;99473.52;;;17.97;89.47
11413;BME280;5762;43.256;26.960;2023-02-19T12:53:43;99457.52;;;17.84;87.20
11413;BME280;5762;43.256;26.960;2023-02-19T12:56:12;99453.86;;;17.86;86.91
11413;BME280;5762;43.256;26.960;2023-02-19T12:58:42;99448.38;;;17.86;85.82
11413;BME280;5762;43.256;26.960;2023-02-19T13:01:11;99440.75;;;17.85;85.81
11413;BME280;5762;43.256;26.960;2023-02-19T13:03:50;99434.61;;;17.82;85.70
11413;BME280;5762;43.256;26.960;2023-02-19T13:08:58;99458.45;;;17.97;85.33
11413;BME280;5762;43.256;26.960;2023-02-19T13:16:43;99454.98;;;18.16;84.52
11413;BME280;5762;43.256;26.960;2023-02-19T13:19:10;99413.15;;;18.09;81.84
11413;BME280;5762;43.256;26.960;2023-02-19T13:21:39;99442.17;;;18.04;81.85
11413;BME280;5762;43.256;26.960;2023-02-19T13:24:32;99427.45;;;17.93;82.61
11413;BME280;5762;43.256;26.960;2023-02-19T13:29:37;99441.91;;;18.09;80.70
11413;BME280;5762;43.256;26.960;2023-02-19T13:32:06;99430.63;;;17.95;79.18
11413;BME280;5762;43.256;26.960;2023-02-19T13:37:01;99425.64;;;17.91;80.19
11413;BME280;5762;43.256;26.960;2023-02-19T13:39:30;99422.06;;;17.97;80.41
11413;BME280;5762;43.256;26.960;2023-02-19T13:41:59;99427.19;;;17.98;80.02
11413;BME280;5762;43.256;26.960;2023-02-19T13:44:29;99406.93;;;18.03;78.67
11413;BME280;5762;43.256;26.960;2023-02-19T13:46:57;99428.66;;;18.12;78.70
11413;BME280;5762;43.256;26.960;2023-02-19T13:51:57;99425.02;;;18.23;77.21
11413;BME280;5762;43.256;26.960;2023-02-19T13:59:41;99426.35;;;18.14;77.86
11413;BME280;5762;43.256;26.960;2023-02-19T14:02:11;99442.95;;;18.21;76.62
11413;BME280;5762;43.256;26.960;2023-02-19T14:07:19;99417.52;;;18.20;76.44
11413;BME280;5762;43.256;26.960;2023-02-19T14:09:47;99424.23;;;18.07;76.38
11413;BME280;5762;43.256;26.960;2023-02-19T14:14:54;99430.64;;;18.05;76.99
11413;BME280;5762;43.256;26.960;2023-02-19T14:20:01;99431.17;;;18.11;76.72
11413;BME280;5762;43.256;26.960;2023-02-19T14:27:49;99422.81;;;17.88;76.38
11413;BME280;5762;43.256;26.960;2023-02-19T14:30:19;99415.00;;;17.80;76.55
11413;BME280;5762;43.256;26.960;2023-02-19T14:32:49;99415.05;;;17.74;77.41
11413;BME280;5762;43.256;26.960;2023-02-19T14:35:23;99415.75;;;17.71;78.20
11413;BME280;5762;43.256;26.960;2023-02-19T14:37:47;99414.23;;;17.58;79.48
11413;BME280;5762;43.256;26.960;2023-02-19T14:40:27;99417.36;;;17.50;79.87
11413;BME280;5762;43.256;26.960;2023-02-19T14:42:51;99407.69;;;17.47;80.36
11413;BME280;5762;43.256;26.960;2023-02-19T14:45:21;99419.42;;;17.47;80.60
11413;BME280;5762;43.256;26.960;2023-02-19T14:47:50;99426.97;;;17.44;80.89
11413;BME280;5762;43.256;26.960;2023-02-19T14:50:27;99429.00;;;17.47;81.12
11413;BME280;5762;43.256;26.960;2023-02-19T14:52:56;99429.80;;;17.48;81.67
11413;BME280;5762;43.256;26.960;2023-02-19T14:57:55;99434.06;;;17.39;82.67
11413;BME280;5762;43.256;26.960;2023-02-19T15:00:25;99434.41;;;17.37;83.24